createdAt,value
2019-02-20T00:01:39.181Z,27.47
2019-02-20T00:04:08.776Z,30.83
2019-02-20T00:06:38.696Z,26.43
2019-02-20T00:09:08.244Z,26.47
2019-02-20T00:11:39.251Z,27.80
2019-02-20T00:14:08.863Z,29.80
2019-02-20T00:16:38.423Z,25.63
2019-02-20T00:19:20.914Z,28.07
2019-02-20T00:21:50.514Z,27.60
2019-02-20T00:24:20.061Z,25.93
2019-02-20T00:26:50.023Z,26.10
2019-02-20T00:29:19.541Z,28.47
2019-02-20T00:31:49.425Z,25.00
2019-02-20T00:34:19.059Z,26.90
2019-02-20T00:36:48.602Z,26.50
2019-02-20T00:39:18.535Z,26.40
2019-02-20T00:41:48.459Z,26.60
2019-02-20T00:44:25.815Z,28.57
2019-02-20T00:46:59.709Z,28.17
2019-02-20T00:49:30.815Z,29.10
2019-02-20T00:52:11.197Z,29.37
2019-02-20T00:54:40.742Z,27.87
2019-02-20T00:57:10.303Z,27.83
2019-02-20T00:59:39.874Z,27.03
2019-02-20T01:02:09.704Z,25.00
2019-02-20T01:04:39.071Z,25.47
2019-02-20T01:07:08.402Z,29.77
2019-02-20T01:09:38.774Z,26.63
2019-02-20T01:12:13.924Z,26.50
2019-02-20T01:14:43.869Z,26.57
2019-02-20T01:17:13.781Z,25.63
2019-02-20T01:19:43.324Z,27.23
2019-02-20T01:22:13.198Z,28.10
2019-02-20T01:24:42.741Z,25.20
2019-02-20T01:27:12.302Z,24.27
2019-02-20T01:29:41.893Z,28.23
2019-02-20T01:32:11.432Z,25.37
2019-02-20T01:34:40.990Z,24.47
2019-02-20T01:37:10.608Z,27.00
2019-02-20T01:39:40.425Z,24.87
2019-02-20T01:42:10.355Z,25.87
2019-02-20T01:44:39.937Z,26.57
2019-02-20T01:47:09.484Z,28.27
2019-02-20T01:49:39.044Z,26.93
2019-02-20T01:52:09.004Z,27.53
2019-02-20T01:54:38.627Z,26.30
2019-02-20T01:57:08.494Z,30.20
2019-02-20T01:59:38.094Z,27.60
2019-02-20T02:02:07.645Z,26.43
2019-02-20T02:04:37.187Z,26.73
2019-02-20T02:07:07.876Z,28.13
2019-02-20T02:09:37.415Z,27.93
2019-02-20T02:12:06.956Z,29.17
2019-02-20T02:14:37.373Z,27.80
2019-02-20T02:17:07.213Z,27.67
2019-02-20T02:19:36.771Z,25.57
2019-02-20T02:22:06.376Z,29.23
2019-02-20T02:24:37.296Z,31.07
2019-02-20T02:27:07.192Z,29.20
2019-02-20T02:29:36.744Z,27.23
2019-02-20T02:32:07.633Z,27.13
2019-02-20T02:34:37.538Z,27.73
2019-02-20T02:37:07.096Z,30.20
2019-02-20T02:39:36.963Z,29.57
2019-02-20T02:42:06.880Z,30.33
2019-02-20T02:44:36.795Z,32.10
2019-02-20T02:47:06.336Z,30.70
2019-02-20T02:49:36.203Z,28.90
2019-02-20T02:52:06.126Z,29.33
2019-02-20T02:54:35.807Z,29.60
2019-02-20T02:57:05.669Z,29.83
2019-02-20T02:59:35.560Z,28.53
2019-02-20T03:02:05.126Z,29.93
2019-02-20T03:04:34.734Z,26.83
2019-02-20T03:07:04.280Z,31.20
2019-02-20T03:09:33.827Z,30.73
2019-02-20T03:12:03.402Z,29.40
2019-02-20T03:14:32.940Z,31.17
2019-02-20T03:17:03.359Z,27.63
2019-02-20T03:19:32.936Z,28.20
2019-02-20T03:22:02.473Z,30.90
2019-02-20T03:24:32.023Z,29.43
2019-02-20T03:27:01.637Z,29.83
2019-02-20T03:29:31.187Z,31.13
2019-02-20T03:32:00.862Z,31.70
2019-02-20T03:34:30.432Z,29.70
2019-02-20T03:37:00.283Z,28.90
2019-02-20T03:39:30.187Z,30.77
2019-02-20T03:41:59.775Z,29.17
2019-02-20T03:44:29.619Z,28.13
2019-02-20T03:46:59.424Z,30.00
2019-02-20T03:49:29.028Z,26.53
2019-02-20T03:51:58.936Z,29.47
2019-02-20T03:54:28.499Z,27.97
2019-02-20T03:56:58.084Z,30.53
2019-02-20T03:59:27.970Z,30.47
2019-02-20T04:01:57.882Z,27.83
2019-02-20T04:04:28.316Z,29.83
2019-02-20T04:06:58.235Z,28.03
2019-02-20T04:09:27.797Z,28.77
2019-02-20T04:11:57.616Z,28.47
2019-02-20T04:14:27.164Z,25.47
2019-02-20T04:16:57.062Z,27.30
2019-02-20T04:19:26.657Z,26.70
2019-02-20T04:21:56.479Z,28.07
2019-02-20T04:24:26.037Z,28.03
2019-02-20T04:26:55.616Z,26.50
2019-02-20T04:29:25.176Z,25.33
2019-02-20T04:31:55.013Z,27.47
2019-02-20T04:34:24.640Z,23.10
2019-02-20T04:36:54.741Z,25.67
2019-02-20T04:39:24.303Z,22.67
2019-02-20T04:41:53.891Z,26.00
2019-02-20T04:44:23.432Z,24.47
2019-02-20T04:46:53.002Z,23.13
2019-02-20T04:49:22.880Z,23.03
2019-02-20T04:51:52.699Z,24.17
2019-02-20T04:54:23.495Z,25.13
2019-02-20T04:56:53.059Z,23.83
2019-02-20T04:59:22.629Z,22.67
2019-02-20T05:01:52.206Z,23.53
2019-02-20T05:04:21.776Z,22.17
2019-02-20T05:06:51.394Z,23.00
2019-02-20T05:09:21.016Z,23.37
2019-02-20T05:11:50.569Z,23.27
2019-02-20T05:14:20.112Z,21.43
2019-02-20T05:16:50.301Z,22.13
2019-02-20T05:19:19.870Z,23.03
2019-02-20T05:21:51.475Z,20.63
2019-02-20T05:24:24.660Z,20.53
2019-02-20T05:26:52.216Z,22.07
2019-02-20T05:29:22.116Z,25.03
2019-02-20T05:31:51.724Z,23.53
2019-02-20T05:34:21.276Z,22.00
2019-02-20T05:36:52.795Z,20.97
2019-02-20T05:39:22.329Z,24.77
2019-02-20T05:41:52.420Z,20.87
2019-02-20T05:44:21.993Z,21.27
2019-02-20T05:46:51.593Z,21.17
2019-02-20T05:49:21.179Z,22.27
2019-02-20T05:51:50.781Z,19.77
2019-02-20T05:54:20.327Z,18.70
2019-02-20T05:56:49.868Z,21.07
2019-02-20T05:59:19.459Z,19.00
2019-02-20T06:01:48.997Z,21.30
2019-02-20T06:04:18.544Z,20.37
2019-02-20T06:06:48.117Z,18.57
2019-02-20T06:09:17.995Z,19.23
2019-02-20T06:11:47.527Z,20.30
2019-02-20T06:14:17.452Z,21.03
2019-02-20T06:16:47.000Z,20.90
2019-02-20T06:19:16.551Z,20.20
2019-02-20T06:21:46.130Z,19.97
2019-02-20T06:24:17.342Z,18.73
2019-02-20T06:26:46.912Z,19.70
2019-02-20T06:29:16.462Z,20.90
2019-02-20T06:31:46.024Z,19.97
2019-02-20T06:34:17.292Z,19.20
2019-02-20T06:36:46.845Z,19.03
2019-02-20T06:39:16.408Z,19.57
2019-02-20T06:41:45.990Z,18.67
2019-02-20T06:44:15.535Z,19.50
2019-02-20T06:46:45.149Z,19.20
2019-02-20T06:49:14.731Z,21.27
2019-02-20T06:51:44.271Z,18.80
2019-02-20T06:54:13.829Z,19.10
2019-02-20T06:56:43.448Z,19.57
2019-02-20T06:59:13.000Z,19.17
2019-02-20T07:01:42.543Z,21.03
2019-02-20T07:04:12.124Z,19.07
2019-02-20T07:06:44.799Z,18.00
2019-02-20T07:09:29.587Z,19.77
2019-02-20T07:12:26.435Z,18.40
2019-02-20T07:15:16.752Z,17.63
2019-02-20T07:17:52.556Z,21.07
2019-02-20T07:20:43.626Z,20.67
2019-02-20T07:23:44.617Z,19.37
2019-02-20T07:26:30.247Z,18.50
2019-02-20T07:29:24.486Z,16.17
2019-02-20T07:31:54.339Z,17.47
2019-02-20T07:34:23.895Z,19.63
2019-02-20T07:36:53.460Z,18.87
2019-02-20T07:39:23.435Z,18.63
2019-02-20T07:41:53.319Z,18.33
2019-02-20T07:44:22.888Z,18.93
2019-02-20T07:46:52.472Z,18.80
2019-02-20T07:49:22.210Z,18.47
2019-02-20T07:51:52.923Z,18.53
2019-02-20T07:54:22.467Z,19.00
2019-02-20T07:56:52.024Z,19.33
2019-02-20T07:59:21.595Z,19.07
2019-02-20T08:01:51.158Z,18.13
2019-02-20T08:04:20.695Z,19.13
2019-02-20T08:06:50.292Z,17.43
2019-02-20T08:09:19.815Z,17.47
2019-02-20T08:11:49.362Z,18.63
2019-02-20T08:14:19.323Z,18.57
2019-02-20T08:16:52.212Z,18.23
2019-02-20T08:19:21.823Z,17.33
2019-02-20T08:21:54.401Z,18.00
2019-02-20T08:24:23.943Z,16.67
2019-02-20T08:26:54.379Z,17.13
2019-02-20T08:29:24.772Z,17.23
2019-02-20T08:31:54.675Z,15.73
2019-02-20T08:34:24.218Z,17.87
2019-02-20T08:36:53.795Z,18.20
2019-02-20T08:39:23.337Z,14.70
2019-02-20T08:41:53.196Z,15.73
2019-02-20T08:44:22.785Z,20.40
2019-02-20T08:46:52.653Z,15.30
2019-02-20T08:49:22.576Z,17.23
2019-02-20T08:51:53.175Z,15.37
2019-02-20T08:54:22.723Z,15.00
2019-02-20T08:56:52.264Z,17.00
2019-02-20T08:59:21.839Z,14.80
2019-02-20T09:01:51.406Z,14.50
2019-02-20T09:04:20.932Z,15.10
2019-02-20T09:06:50.508Z,15.73
2019-02-20T09:09:20.052Z,14.87
2019-02-20T09:11:49.594Z,16.97
2019-02-20T09:14:19.388Z,15.63
2019-02-20T09:16:48.936Z,15.53
2019-02-20T09:19:19.567Z,13.93
2019-02-20T09:21:49.142Z,16.13
2019-02-20T09:24:18.744Z,14.83
2019-02-20T09:26:48.583Z,15.50
2019-02-20T09:29:18.163Z,15.33
2019-02-20T09:31:47.708Z,15.90
2019-02-20T09:34:17.246Z,14.80
2019-02-20T09:36:47.696Z,15.53
2019-02-20T09:39:33.872Z,14.70
2019-02-20T09:42:04.158Z,15.87
2019-02-20T09:44:36.808Z,16.10
2019-02-20T09:47:06.387Z,15.63
2019-02-20T09:49:35.916Z,14.97
2019-02-20T09:52:05.781Z,15.60
2019-02-20T09:54:36.596Z,16.60
2019-02-20T09:57:06.634Z,14.80
2019-02-20T09:59:36.250Z,16.20
2019-02-20T10:02:05.844Z,14.67
2019-02-20T10:04:35.367Z,15.30
2019-02-20T10:07:04.944Z,14.87
2019-02-20T10:09:34.499Z,15.53
2019-02-20T10:12:04.048Z,14.70
2019-02-20T10:14:33.586Z,14.43
2019-02-20T10:17:04.044Z,15.57
2019-02-20T10:19:33.574Z,15.70
2019-02-20T10:22:03.129Z,15.93
2019-02-20T10:24:32.708Z,17.00
2019-02-20T10:27:02.482Z,16.50
2019-02-20T10:29:32.832Z,16.07
2019-02-20T10:32:02.430Z,16.03
2019-02-20T10:34:32.346Z,15.07
2019-02-20T10:37:01.911Z,17.00
2019-02-20T10:39:31.523Z,16.87
2019-02-20T10:42:01.075Z,16.40
2019-02-20T10:44:30.983Z,15.47
2019-02-20T10:47:00.556Z,16.10
2019-02-20T10:49:42.859Z,16.40
2019-02-20T10:52:12.450Z,16.80
2019-02-20T10:54:41.998Z,16.37
2019-02-20T10:57:11.656Z,15.20
2019-02-20T10:59:41.290Z,17.43
2019-02-20T11:02:10.839Z,18.07
2019-02-20T11:04:40.387Z,15.87
2019-02-20T11:07:10.971Z,15.93
2019-02-20T11:09:41.505Z,16.97
2019-02-20T11:12:11.064Z,15.93
2019-02-20T11:14:53.546Z,15.97
2019-02-20T11:17:23.416Z,15.70
2019-02-20T11:19:52.968Z,16.13
2019-02-20T11:22:22.545Z,15.77
2019-02-20T11:24:53.813Z,15.47
2019-02-20T11:27:23.251Z,14.83
2019-02-20T11:29:52.835Z,16.53
2019-02-20T11:32:22.413Z,16.47
2019-02-20T11:34:51.963Z,14.07
2019-02-20T11:37:21.582Z,15.43
2019-02-20T11:39:51.115Z,15.67
2019-02-20T11:42:20.661Z,13.77
2019-02-20T11:44:50.230Z,14.30
2019-02-20T11:47:19.770Z,15.63
2019-02-20T11:49:49.316Z,13.40
2019-02-20T11:52:18.887Z,12.03
2019-02-20T11:54:48.433Z,14.27
2019-02-20T11:57:18.258Z,14.03
2019-02-20T11:59:48.171Z,10.73
2019-02-20T12:02:17.720Z,12.77
2019-02-20T12:04:47.590Z,11.77
2019-02-20T12:07:17.173Z,12.00
2019-02-20T12:09:46.720Z,12.23
2019-02-20T12:12:16.273Z,11.70
2019-02-20T12:14:45.859Z,12.10
2019-02-20T12:17:15.402Z,12.87
2019-02-20T12:19:45.338Z,14.17
2019-02-20T12:22:14.998Z,12.73
2019-02-20T12:24:44.489Z,14.73
2019-02-20T12:27:14.031Z,11.67
2019-02-20T12:29:43.603Z,11.27
2019-02-20T12:32:13.184Z,11.97
2019-02-20T12:34:42.747Z,12.57
2019-02-20T12:37:12.320Z,12.23
2019-02-20T12:39:41.851Z,11.23
2019-02-20T12:42:12.968Z,11.23
2019-02-20T12:44:42.808Z,12.23
2019-02-20T12:47:12.357Z,12.40
2019-02-20T12:49:41.899Z,12.50
2019-02-20T12:52:12.479Z,13.70
2019-02-20T12:54:42.030Z,12.17
2019-02-20T12:57:11.897Z,12.97
2019-02-20T12:59:41.464Z,12.83
2019-02-20T13:02:11.011Z,13.00
2019-02-20T13:04:40.700Z,12.30
2019-02-20T13:07:10.301Z,11.90
2019-02-20T13:09:39.844Z,11.70
2019-02-20T13:12:10.948Z,11.13
2019-02-20T13:14:40.515Z,11.97
2019-02-20T13:17:10.066Z,11.40
2019-02-20T13:19:39.621Z,11.73
2019-02-20T13:22:09.212Z,11.50
2019-02-20T13:24:39.116Z,10.33
2019-02-20T13:27:10.276Z,11.03
2019-02-20T13:29:40.082Z,11.47
2019-02-20T13:32:09.630Z,11.70
2019-02-20T13:34:40.116Z,10.83
2019-02-20T13:37:09.934Z,11.20
2019-02-20T13:39:39.464Z,12.07
2019-02-20T13:42:09.296Z,11.40
2019-02-20T13:44:39.077Z,11.13
2019-02-20T13:47:08.611Z,11.73
2019-02-20T13:49:38.489Z,11.43
2019-02-20T13:52:08.086Z,9.97
2019-02-20T13:54:37.616Z,12.73
2019-02-20T13:57:07.155Z,10.30
2019-02-20T13:59:37.139Z,11.23
2019-02-20T14:02:06.675Z,10.33
2019-02-20T14:04:36.226Z,10.60
2019-02-20T14:07:05.807Z,10.50
2019-02-20T14:09:35.495Z,10.50
2019-02-20T14:12:07.235Z,9.47
2019-02-20T14:14:36.553Z,11.90
2019-02-20T14:17:06.111Z,10.10
2019-02-20T14:19:35.666Z,8.63
2019-02-20T14:22:05.241Z,9.73
2019-02-20T14:24:34.768Z,10.67
2019-02-20T14:27:10.554Z,9.50
2019-02-20T14:29:36.621Z,9.97
2019-02-20T14:32:06.495Z,9.23
2019-02-20T14:34:36.420Z,9.53
2019-02-20T14:37:07.767Z,10.90
2019-02-20T14:39:37.447Z,8.47
2019-02-20T14:42:07.407Z,10.13
2019-02-20T14:44:37.607Z,9.30
2019-02-20T14:47:07.149Z,9.93
2019-02-20T14:49:36.815Z,9.23
2019-02-20T14:52:06.394Z,9.97
2019-02-20T14:54:35.924Z,7.70
2019-02-20T14:57:05.474Z,10.77
2019-02-20T14:59:36.690Z,9.90
2019-02-20T15:02:06.604Z,10.53
2019-02-20T15:04:36.504Z,10.57
2019-02-20T15:07:25.443Z,11.37
2019-02-20T15:09:55.690Z,13.00
2019-02-20T15:12:25.601Z,12.97
2019-02-20T15:14:56.104Z,13.70
2019-02-20T15:17:25.971Z,14.53
2019-02-20T15:19:55.531Z,12.63
2019-02-20T15:22:25.982Z,12.40
2019-02-20T15:24:56.232Z,12.20
2019-02-20T15:27:28.690Z,13.30
2019-02-20T15:29:57.103Z,13.57
2019-02-20T15:32:26.662Z,13.37
2019-02-20T15:34:56.351Z,15.60
2019-02-20T15:37:26.153Z,13.40
2019-02-20T15:39:55.986Z,13.90
2019-02-20T15:42:25.796Z,15.47
2019-02-20T15:44:55.358Z,14.13
2019-02-20T15:47:24.920Z,15.60
2019-02-20T15:49:54.831Z,14.23
2019-02-20T15:52:24.739Z,12.83
2019-02-20T15:54:54.701Z,13.40
2019-02-20T15:57:24.248Z,14.40
2019-02-20T15:59:53.836Z,14.17
2019-02-20T16:02:23.372Z,13.27
2019-02-20T16:04:52.924Z,14.17
2019-02-20T16:07:22.491Z,16.33
2019-02-20T16:10:05.901Z,16.27
2019-02-20T16:12:35.519Z,14.77
2019-02-20T16:15:07.364Z,17.53
2019-02-20T16:17:36.996Z,15.90
2019-02-20T16:20:12.075Z,16.27
2019-02-20T16:22:41.649Z,15.60
2019-02-20T16:25:16.219Z,14.90
2019-02-20T16:27:47.682Z,15.07
2019-02-20T16:30:17.480Z,13.87
2019-02-20T16:32:47.065Z,15.53
2019-02-20T16:35:16.925Z,15.20
2019-02-20T16:37:46.669Z,15.20
2019-02-20T16:40:16.641Z,18.40
2019-02-20T16:42:47.035Z,16.87
2019-02-20T16:45:24.653Z,18.10
2019-02-20T16:47:54.494Z,18.43
2019-02-20T16:50:24.042Z,17.27
2019-02-20T16:52:53.631Z,17.10
2019-02-20T16:55:25.070Z,18.47
2019-02-20T16:57:56.926Z,18.90
2019-02-20T17:00:25.795Z,17.93
2019-02-20T17:02:55.955Z,18.27
2019-02-20T17:05:25.504Z,20.83
2019-02-20T17:07:55.172Z,17.90
2019-02-20T17:10:24.768Z,20.40
2019-02-20T17:12:54.680Z,19.17
2019-02-20T17:15:24.239Z,19.57
2019-02-20T17:17:54.119Z,19.73
2019-02-20T17:20:24.996Z,18.93
2019-02-20T17:22:54.567Z,18.90
2019-02-20T17:25:24.388Z,21.53
2019-02-20T17:27:54.228Z,21.43
2019-02-20T17:30:23.775Z,16.10
2019-02-20T17:32:53.485Z,20.27
2019-02-20T17:35:23.041Z,19.03
2019-02-20T17:37:52.728Z,18.27
2019-02-20T17:40:22.308Z,19.10
2019-02-20T17:42:51.972Z,19.10
2019-02-20T17:45:22.142Z,18.87
2019-02-20T17:47:51.740Z,18.90
2019-02-20T17:50:25.969Z,18.97
2019-02-20T17:52:55.563Z,19.00
2019-02-20T17:55:25.093Z,16.33
2019-02-20T17:57:54.641Z,18.57
2019-02-20T18:00:26.982Z,18.03
2019-02-20T18:02:56.520Z,18.17
2019-02-20T18:05:26.059Z,16.20
2019-02-20T18:07:55.661Z,16.97
2019-02-20T18:10:25.208Z,17.90
2019-02-20T18:12:55.036Z,20.57
2019-02-20T18:15:24.777Z,17.77
2019-02-20T18:17:54.324Z,22.53
2019-02-20T18:20:25.181Z,21.07
2019-02-20T18:22:54.818Z,17.83
2019-02-20T18:25:24.374Z,21.63
2019-02-20T18:27:54.080Z,19.60
2019-02-20T18:30:24.544Z,20.87
2019-02-20T18:32:54.091Z,19.73
2019-02-20T18:35:23.634Z,18.47
2019-02-20T18:37:54.088Z,19.90
2019-02-20T18:40:23.572Z,20.53
2019-02-20T18:42:53.129Z,19.60
2019-02-20T18:45:22.711Z,19.37
2019-02-20T18:47:52.288Z,18.37
2019-02-20T18:50:21.846Z,18.33
2019-02-20T18:52:51.730Z,18.67
2019-02-20T18:55:21.640Z,17.93
2019-02-20T18:57:51.206Z,18.40
2019-02-20T19:00:21.462Z,17.87
2019-02-20T19:02:51.030Z,17.20
2019-02-20T19:05:22.021Z,17.83
2019-02-20T19:07:51.599Z,18.27
2019-02-20T19:10:36.541Z,19.63
2019-02-20T19:13:09.274Z,18.50
2019-02-20T19:15:50.564Z,20.60
2019-02-20T19:18:40.569Z,20.80
2019-02-20T19:21:28.425Z,19.60
2019-02-20T19:24:06.695Z,19.30
2019-02-20T19:27:02.191Z,21.40
2019-02-20T19:29:43.889Z,20.00
2019-02-20T19:32:16.607Z,20.33
2019-02-20T19:35:05.883Z,19.03
2019-02-20T19:37:50.572Z,20.10
2019-02-20T19:40:48.413Z,20.03
2019-02-20T19:43:43.977Z,18.73
2019-02-20T19:46:28.676Z,20.13
2019-02-20T19:49:13.276Z,20.40
2019-02-20T19:51:48.789Z,19.37
2019-02-20T19:54:24.775Z,19.93
2019-02-20T19:57:03.449Z,20.20
2019-02-20T19:59:39.151Z,21.93
2019-02-20T20:02:14.736Z,20.07
2019-02-20T20:04:49.974Z,23.67
2019-02-20T20:07:28.657Z,18.90
2019-02-20T20:10:09.924Z,20.10
2019-02-20T20:13:00.870Z,20.70
2019-02-20T20:15:40.468Z,19.00
2019-02-20T20:18:31.568Z,18.80
2019-02-20T20:21:16.498Z,21.90
2019-02-20T20:24:06.898Z,20.23
2019-02-20T20:27:13.416Z,21.87
2019-02-20T20:29:54.824Z,20.30
2019-02-20T20:32:36.506Z,22.63
2019-02-20T20:35:41.135Z,22.73
2019-02-20T20:38:28.705Z,22.40
2019-02-20T20:41:10.337Z,23.97
2019-02-20T20:43:59.534Z,20.70
2019-02-20T20:46:41.230Z,22.43
2019-02-20T20:49:36.966Z,21.90
2019-02-20T20:52:35.597Z,23.03
2019-02-20T20:55:14.089Z,23.50
2019-02-20T20:58:05.073Z,22.40
2019-02-20T21:00:43.608Z,21.37
2019-02-20T21:03:16.295Z,21.77
2019-02-20T21:06:08.759Z,23.53
2019-02-20T21:08:41.952Z,23.77
2019-02-20T21:11:14.724Z,23.43
2019-02-20T21:14:08.740Z,22.67
2019-02-20T21:16:50.843Z,24.30
2019-02-20T21:19:46.027Z,21.03
2019-02-20T21:22:27.200Z,23.00
2019-02-20T21:25:16.805Z,24.37
2019-02-20T21:27:55.300Z,24.57
2019-02-20T21:30:27.962Z,24.23
2019-02-20T21:33:09.795Z,24.30
2019-02-20T21:35:54.536Z,23.27
2019-02-20T21:38:36.492Z,24.40
2019-02-20T21:41:28.009Z,26.57
2019-02-20T21:44:03.761Z,24.80
2019-02-20T21:46:51.360Z,25.43
2019-02-20T21:49:42.376Z,27.23
2019-02-20T21:52:45.630Z,26.67
2019-02-20T21:55:35.407Z,28.17
2019-02-20T21:58:33.927Z,26.10
2019-02-20T22:01:42.961Z,29.90
2019-02-20T22:04:15.625Z,29.47
2019-02-20T22:07:15.868Z,25.73
2019-02-20T22:09:57.840Z,29.10
2019-02-20T22:12:31.318Z,29.83
2019-02-20T22:15:16.084Z,28.27
2019-02-20T22:17:54.875Z,26.93
2019-02-20T22:20:30.622Z,32.20
2019-02-20T22:23:18.591Z,27.87
2019-02-20T22:25:52.168Z,29.63
2019-02-20T22:28:43.143Z,31.27
2019-02-20T22:31:24.660Z,32.93
2019-02-20T22:34:30.986Z,33.97
2019-02-20T22:37:03.657Z,29.57
2019-02-20T22:39:47.895Z,32.13
2019-02-20T22:42:30.055Z,34.03
2019-02-20T22:45:30.803Z,33.33
2019-02-20T22:48:35.939Z,30.37
2019-02-20T22:51:11.779Z,30.77
2019-02-20T22:53:53.387Z,33.70
2019-02-20T22:56:41.055Z,34.17
2019-02-20T22:59:17.188Z,33.17
2019-02-20T23:02:14.392Z,36.90
2019-02-20T23:04:57.692Z,32.93
2019-02-20T23:07:33.361Z,33.63
2019-02-20T23:10:15.030Z,35.23
2019-02-20T23:12:53.770Z,34.13
2019-02-20T23:15:23.320Z,36.33
2019-02-20T23:17:52.894Z,37.43
2019-02-20T23:20:22.703Z,37.37
2019-02-20T23:22:52.273Z,37.63
2019-02-20T23:25:21.794Z,36.10
2019-02-20T23:27:51.384Z,34.07
2019-02-20T23:30:20.922Z,39.53
2019-02-20T23:32:50.458Z,34.83
2019-02-20T23:35:20.039Z,38.00
2019-02-20T23:37:49.570Z,34.67
2019-02-20T23:40:19.111Z,35.73
2019-02-20T23:42:49.336Z,38.73
2019-02-20T23:45:18.905Z,33.13
2019-02-20T23:47:48.456Z,37.90
2019-02-20T23:50:18.027Z,34.43
2019-02-20T23:52:47.572Z,35.57
2019-02-20T23:55:17.135Z,36.60
2019-02-20T23:57:46.713Z,34.93
